createdAt,value
2023-05-10T00:00:49.333Z,10.4528
2023-05-10T00:01:57.432Z,10.5078
2023-05-10T00:03:05.643Z,10.5514
2023-05-10T00:04:13.621Z,10.5644
2023-05-10T00:05:21.501Z,10.5406
2023-05-10T00:06:29.470Z,10.5410
2023-05-10T00:07:37.523Z,10.5452
2023-05-10T00:08:45.712Z,10.5200
2023-05-10T00:09:53.856Z,10.5272
2023-05-10T00:11:01.860Z,10.5814
2023-05-10T00:12:09.922Z,10.6264
2023-05-10T00:13:18.048Z,10.5566
2023-05-10T00:14:26.085Z,10.6367
2023-05-10T00:15:34.048Z,10.6525
2023-05-10T00:16:42.149Z,10.6447
2023-05-10T00:17:50.178Z,10.6356
2023-05-10T00:18:58.237Z,10.6781
2023-05-10T00:20:06.198Z,10.7649
2023-05-10T00:21:14.196Z,10.7260
2023-05-10T00:22:22.253Z,10.7157
2023-05-10T00:23:30.468Z,10.7132
2023-05-10T00:24:38.474Z,10.7332
2023-05-10T00:25:46.794Z,10.8063
2023-05-10T00:26:54.944Z,10.9022
2023-05-10T00:28:02.663Z,10.9083
2023-05-10T00:29:10.702Z,10.8665
2023-05-10T00:30:19.041Z,10.8595
2023-05-10T00:31:26.863Z,10.8074
2023-05-10T00:32:34.918Z,10.7550
2023-05-10T00:33:42.922Z,10.8166
2023-05-10T00:34:50.875Z,11.0107
2023-05-10T00:35:58.896Z,11.2494
2023-05-10T00:37:06.996Z,11.3169
2023-05-10T00:38:15.227Z,11.1536
2023-05-10T00:39:23.292Z,11.1494
2023-05-10T00:40:31.341Z,11.3037
2023-05-10T00:41:39.436Z,11.3577
2023-05-10T00:42:47.589Z,11.1792
2023-05-10T00:43:55.486Z,11.0615
2023-05-10T00:45:03.529Z,11.2160
2023-05-10T00:46:11.751Z,11.2734
2023-05-10T00:47:19.644Z,11.3916
2023-05-10T00:48:27.783Z,11.4185
2023-05-10T00:49:35.620Z,11.3640
2023-05-10T00:50:43.690Z,11.2995
2023-05-10T00:51:51.721Z,11.1088
2023-05-10T00:52:59.976Z,11.0668
2023-05-10T00:54:08.023Z,11.0165
2023-05-10T00:55:16.035Z,11.0031
2023-05-10T00:56:24.086Z,10.8551
2023-05-10T00:57:32.166Z,10.9503
2023-05-10T00:58:40.319Z,10.7815
2023-05-10T00:59:48.299Z,10.7502
2023-05-10T01:00:56.426Z,10.9190
2023-05-10T01:02:04.479Z,10.8742
2023-05-10T01:03:12.582Z,10.9627
2023-05-10T01:04:20.396Z,10.8562
2023-05-10T01:05:28.478Z,10.9188
2023-05-10T01:06:36.476Z,11.0540
2023-05-10T01:07:44.708Z,11.0371
2023-05-10T01:08:52.724Z,11.0600
2023-05-10T01:10:00.800Z,10.8673
2023-05-10T01:11:08.861Z,10.8957
2023-05-10T01:12:16.979Z,10.9842
2023-05-10T01:13:25.008Z,11.0796
2023-05-10T01:14:33.144Z,11.0222
2023-05-10T01:15:41.147Z,11.0012
2023-05-10T01:16:49.106Z,10.9434
2023-05-10T01:17:57.209Z,11.0535
2023-05-10T01:19:05.089Z,11.1479
2023-05-10T01:20:13.190Z,10.9785
2023-05-10T01:21:21.259Z,10.9234
2023-05-10T01:22:29.407Z,10.9741
2023-05-10T01:23:37.456Z,10.9358
2023-05-10T01:24:45.502Z,10.7800
2023-05-10T01:25:53.573Z,10.7916
2023-05-10T01:27:01.654Z,10.7401
2023-05-10T01:28:09.672Z,10.7489
2023-05-10T01:29:17.758Z,10.6268
2023-05-10T01:30:25.909Z,10.8044
2023-05-10T01:31:33.959Z,10.7944
2023-05-10T01:32:42.136Z,10.8305
2023-05-10T01:33:49.834Z,10.7269
2023-05-10T01:34:57.887Z,10.8808
2023-05-10T01:36:05.940Z,10.8046
2023-05-10T01:37:14.134Z,10.8271
2023-05-10T01:38:22.207Z,10.8458
2023-05-10T01:39:30.236Z,10.7891
2023-05-10T01:40:38.289Z,10.7389
2023-05-10T01:41:46.384Z,10.6487
2023-05-10T01:42:54.402Z,10.6588
2023-05-10T01:44:02.435Z,10.6714
2023-05-10T01:45:10.496Z,10.7410
2023-05-10T01:46:18.673Z,10.7450
2023-05-10T01:47:26.707Z,10.7519
2023-05-10T01:48:34.540Z,10.8404
2023-05-10T01:49:42.574Z,10.7403
2023-05-10T01:50:50.665Z,10.7491
2023-05-10T01:51:58.901Z,10.8461
2023-05-10T01:53:06.942Z,10.8484
2023-05-10T01:54:14.983Z,10.9499
2023-05-10T01:55:23.039Z,10.9529
2023-05-10T01:56:31.193Z,10.7172
2023-05-10T01:57:39.176Z,10.7950
2023-05-10T01:58:47.292Z,10.8749
2023-05-10T01:59:55.258Z,10.9270
2023-05-10T02:01:03.398Z,10.8520
2023-05-10T02:02:11.379Z,10.8877
2023-05-10T02:03:19.303Z,10.9047
2023-05-10T02:04:27.317Z,10.7113
2023-05-10T02:05:35.390Z,10.7082
2023-05-10T02:06:43.658Z,10.6865
2023-05-10T02:07:51.601Z,10.6378
2023-05-10T02:08:59.727Z,10.6113
2023-05-10T02:10:07.731Z,10.6388
2023-05-10T02:11:15.802Z,10.7203
2023-05-10T02:12:23.992Z,10.6853
2023-05-10T02:13:31.983Z,10.4547
2023-05-10T02:14:39.934Z,10.5143
2023-05-10T02:15:48.000Z,10.5240
2023-05-10T02:16:56.186Z,10.7058
2023-05-10T02:18:04.256Z,10.9423
2023-05-10T02:19:12.043Z,10.7254
2023-05-10T02:20:20.327Z,10.6153
2023-05-10T02:21:28.160Z,10.7759
2023-05-10T02:22:36.364Z,10.9688
2023-05-10T02:23:44.475Z,11.1189
2023-05-10T02:24:52.464Z,11.0594
2023-05-10T02:26:00.737Z,10.9453
2023-05-10T02:27:08.559Z,10.9661
2023-05-10T02:28:16.715Z,10.9076
2023-05-10T02:29:24.724Z,11.0636
2023-05-10T02:30:32.873Z,11.1267
2023-05-10T02:31:41.331Z,11.1368
2023-05-10T02:32:48.795Z,11.2171
2023-05-10T02:33:56.795Z,11.2202
2023-05-10T02:35:04.880Z,11.1338
2023-05-10T02:36:13.052Z,11.2913
2023-05-10T02:37:21.211Z,11.2421
2023-05-10T02:38:29.258Z,10.9751
2023-05-10T02:39:37.261Z,10.8665
2023-05-10T02:40:45.269Z,10.7941
2023-05-10T02:41:53.398Z,10.5720
2023-05-10T02:43:01.416Z,10.6770
2023-05-10T02:44:09.692Z,10.8322
2023-05-10T02:45:17.609Z,10.9783
2023-05-10T02:46:25.790Z,11.1828
2023-05-10T02:47:33.624Z,11.2932
2023-05-10T02:48:41.535Z,11.1822
2023-05-10T02:49:49.583Z,11.0353
2023-05-10T02:50:57.886Z,11.0342
2023-05-10T02:52:10.735Z,11.1477
2023-05-10T02:53:19.019Z,11.0716
2023-05-10T02:54:26.833Z,11.1046
2023-05-10T02:55:34.921Z,11.1414
2023-05-10T02:56:42.984Z,11.1547
2023-05-10T02:57:50.981Z,11.1609
2023-05-10T02:58:59.102Z,11.1813
2023-05-10T03:00:07.109Z,11.0144
2023-05-10T03:01:15.053Z,10.8414
2023-05-10T03:02:23.146Z,10.9821
2023-05-10T03:03:31.120Z,10.8955
2023-05-10T03:04:39.433Z,10.8112
2023-05-10T03:05:47.353Z,10.7695
2023-05-10T03:06:55.441Z,10.6924
2023-05-10T03:08:03.599Z,10.6951
2023-05-10T03:09:11.679Z,10.8770
2023-05-10T03:10:19.726Z,10.7614
2023-05-10T03:11:27.673Z,10.7943
2023-05-10T03:12:35.695Z,10.9379
2023-05-10T03:13:43.825Z,11.0523
2023-05-10T03:14:51.990Z,11.0550
2023-05-10T03:15:59.782Z,11.0243
2023-05-10T03:17:07.803Z,11.0836
2023-05-10T03:18:15.925Z,11.1748
2023-05-10T03:19:24.185Z,10.9665
2023-05-10T03:20:32.182Z,11.0167
2023-05-10T03:21:40.262Z,11.0823
2023-05-10T03:22:48.109Z,11.1938
2023-05-10T03:23:56.345Z,11.2864
2023-05-10T03:25:04.524Z,11.2154
2023-05-10T03:26:12.393Z,11.1046
2023-05-10T03:27:20.472Z,11.1849
2023-05-10T03:28:28.654Z,11.1456
2023-05-10T03:29:36.620Z,10.8131
2023-05-10T03:30:44.506Z,10.7365
2023-05-10T03:31:52.684Z,10.8444
2023-05-10T03:33:00.785Z,10.6874
2023-05-10T03:34:08.861Z,10.7473
2023-05-10T03:35:16.987Z,10.8341
2023-05-10T03:36:24.945Z,10.8908
2023-05-10T03:37:32.971Z,10.9692
2023-05-10T03:38:41.078Z,10.9150
2023-05-10T03:39:49.210Z,10.6237
2023-05-10T03:40:57.468Z,10.6417
2023-05-10T03:42:05.290Z,10.7374
2023-05-10T03:43:13.323Z,10.7943
2023-05-10T03:44:21.412Z,10.9457
2023-05-10T03:45:29.254Z,11.0500
2023-05-10T03:46:37.388Z,11.0764
2023-05-10T03:47:45.505Z,11.0062
2023-05-10T03:48:53.578Z,10.9724
2023-05-10T03:50:01.678Z,11.1088
2023-05-10T03:51:09.835Z,11.1536
2023-05-10T03:52:17.921Z,11.1811
2023-05-10T03:53:26.161Z,11.2444
2023-05-10T03:54:34.000Z,11.4037
2023-05-10T03:55:41.978Z,11.4330
2023-05-10T03:56:50.033Z,11.2358
2023-05-10T03:57:58.128Z,11.0361
2023-05-10T03:59:06.041Z,10.9518
2023-05-10T04:00:14.046Z,10.9951
2023-05-10T04:01:22.021Z,11.1399
2023-05-10T04:02:30.213Z,11.3258
2023-05-10T04:03:38.383Z,11.4218
2023-05-10T04:04:46.383Z,11.4548
2023-05-10T04:05:54.367Z,11.3726
2023-05-10T04:07:02.436Z,11.2522
2023-05-10T04:08:10.449Z,11.1847
2023-05-10T04:09:18.567Z,11.2684
2023-05-10T04:10:26.672Z,11.0886
2023-05-10T04:11:34.799Z,11.0542
2023-05-10T04:12:42.836Z,11.1170
2023-05-10T04:13:50.766Z,11.0662
2023-05-10T04:14:58.703Z,11.2226
2023-05-10T04:16:06.843Z,11.2293
2023-05-10T04:17:14.905Z,11.2528
2023-05-10T04:18:23.025Z,11.2000
2023-05-10T04:19:31.105Z,11.0371
2023-05-10T04:20:39.140Z,11.0588
2023-05-10T04:21:47.181Z,11.0756
2023-05-10T04:22:55.237Z,11.2160
2023-05-10T04:24:03.155Z,11.0722
2023-05-10T04:25:11.521Z,11.0653
2023-05-10T04:26:19.411Z,10.9934
2023-05-10T04:27:27.517Z,11.1071
2023-05-10T04:28:35.532Z,11.1799
2023-05-10T04:29:43.511Z,11.1731
2023-05-10T04:30:51.545Z,11.2040
2023-05-10T04:31:59.567Z,11.1300
2023-05-10T04:33:07.889Z,11.3150
2023-05-10T04:34:15.806Z,11.1601
2023-05-10T04:35:23.873Z,11.2312
2023-05-10T04:36:31.933Z,11.2570
2023-05-10T04:37:39.949Z,11.0075
2023-05-10T04:38:48.077Z,11.0796
2023-05-10T04:39:56.114Z,11.1559
2023-05-10T04:41:04.164Z,10.9993
2023-05-10T04:42:12.454Z,10.8358
2023-05-10T04:43:20.247Z,10.7691
2023-05-10T04:44:28.181Z,10.8332
2023-05-10T04:45:36.225Z,10.9423
2023-05-10T04:46:44.361Z,10.9833
2023-05-10T04:47:52.713Z,10.9419
2023-05-10T04:49:00.562Z,10.8315
2023-05-10T04:50:08.697Z,10.9270
2023-05-10T04:51:16.765Z,10.9451
2023-05-10T04:52:24.763Z,10.9970
2023-05-10T04:53:32.886Z,10.9528
2023-05-10T04:54:41.051Z,11.0281
2023-05-10T04:55:49.090Z,11.0905
2023-05-10T04:56:57.058Z,11.1095
2023-05-10T04:58:05.051Z,11.2328
2023-05-10T04:59:13.019Z,11.3068
2023-05-10T05:00:21.046Z,11.1408
2023-05-10T05:01:29.263Z,11.1055
2023-05-10T05:02:37.397Z,11.1036
2023-05-10T05:03:45.679Z,11.2787
2023-05-10T05:04:53.406Z,11.4369
2023-05-10T05:06:01.578Z,11.4822
2023-05-10T05:07:09.536Z,11.6198
2023-05-10T05:08:17.672Z,11.6325
2023-05-10T05:09:25.650Z,11.6110
2023-05-10T05:10:33.825Z,11.6881
2023-05-10T05:11:41.815Z,11.6699
2023-05-10T05:12:49.841Z,11.4922
2023-05-10T05:13:57.755Z,11.5673
2023-05-10T05:15:07.849Z,11.5564
2023-05-10T05:16:18.852Z,11.3822
2023-05-10T05:17:26.988Z,11.4758
2023-05-10T05:18:34.971Z,11.5673
2023-05-10T05:19:42.983Z,11.6615
2023-05-10T05:20:51.061Z,11.6160
2023-05-10T05:21:59.105Z,11.6160
2023-05-10T05:23:07.239Z,11.4851
2023-05-10T05:24:15.238Z,11.4328
2023-05-10T05:25:23.169Z,11.1755
2023-05-10T05:26:31.469Z,11.0565
2023-05-10T05:27:39.339Z,11.0844
2023-05-10T05:28:47.362Z,11.1652
2023-05-10T05:29:55.380Z,11.1559
2023-05-10T05:31:03.540Z,11.1744
2023-05-10T05:32:11.610Z,11.0735
2023-05-10T05:33:19.768Z,11.0071
2023-05-10T05:34:27.747Z,10.7082
2023-05-10T05:35:35.814Z,10.7882
2023-05-10T05:36:43.831Z,10.7542
2023-05-10T05:37:52.088Z,11.0474
2023-05-10T05:39:00.041Z,10.9852
2023-05-10T05:40:07.998Z,10.9661
2023-05-10T05:41:16.100Z,10.9308
2023-05-10T05:42:24.014Z,10.8818
2023-05-10T05:43:32.016Z,10.8215
2023-05-10T05:44:40.127Z,10.8658
2023-05-10T05:45:48.309Z,11.0291
2023-05-10T05:46:56.631Z,11.0430
2023-05-10T05:48:04.499Z,10.9430
2023-05-10T05:49:12.449Z,10.8988
2023-05-10T05:50:20.556Z,10.6878
2023-05-10T05:51:28.595Z,10.7029
2023-05-10T05:52:36.643Z,10.4406
2023-05-10T05:53:44.740Z,10.6159
2023-05-10T05:54:52.754Z,10.6296
2023-05-10T05:56:00.854Z,10.6386
2023-05-10T05:57:08.739Z,10.7216
2023-05-10T05:58:16.825Z,10.7031
2023-05-10T05:59:24.904Z,10.8021
2023-05-10T06:00:33.149Z,10.7532
2023-05-10T06:01:41.168Z,10.6064
2023-05-10T06:02:49.326Z,10.6752
2023-05-10T06:03:57.323Z,10.5673
2023-05-10T06:05:05.339Z,10.6245
2023-05-10T06:06:13.385Z,10.9150
2023-05-10T06:07:21.422Z,11.0683
2023-05-10T06:08:29.600Z,10.9734
2023-05-10T06:09:37.524Z,10.9421
2023-05-10T06:10:45.589Z,11.0558
2023-05-10T06:11:53.530Z,11.1977
2023-05-10T06:13:01.594Z,11.2801
2023-05-10T06:14:09.683Z,11.3333
2023-05-10T06:15:18.066Z,11.4357
2023-05-10T06:16:26.050Z,11.5723
2023-05-10T06:17:34.006Z,11.4920
2023-05-10T06:18:42.002Z,11.3359
2023-05-10T06:19:50.128Z,11.3853
2023-05-10T06:20:58.204Z,11.3859
2023-05-10T06:22:06.224Z,11.3647
2023-05-10T06:23:14.459Z,11.2885
2023-05-10T06:24:22.348Z,11.2953
2023-05-10T06:25:30.358Z,11.2444
2023-05-10T06:26:38.297Z,11.2061
2023-05-10T06:27:49.766Z,11.2923
2023-05-10T06:28:59.456Z,11.2595
2023-05-10T06:30:13.071Z,11.0968
2023-05-10T06:31:20.387Z,11.1630
2023-05-10T06:32:28.518Z,11.2711
2023-05-10T06:33:36.532Z,11.2658
2023-05-10T06:34:44.687Z,10.9818
2023-05-10T06:35:52.662Z,10.8725
2023-05-10T06:37:00.852Z,10.7574
2023-05-10T06:38:08.769Z,10.6848
2023-05-10T06:39:16.699Z,10.7164
2023-05-10T06:40:24.933Z,10.6790
2023-05-10T06:41:32.785Z,10.7620
2023-05-10T06:42:41.184Z,11.0130
2023-05-10T06:43:49.084Z,11.0588
2023-05-10T06:44:57.323Z,10.8404
2023-05-10T06:46:05.242Z,10.7012
2023-05-10T06:47:13.218Z,10.6800
2023-05-10T06:48:21.308Z,10.5421
2023-05-10T06:49:29.365Z,10.4925
2023-05-10T06:50:37.407Z,10.5972
2023-05-10T06:51:45.455Z,10.4660
2023-05-10T06:52:53.530Z,10.5070
2023-05-10T06:54:01.460Z,10.4895
2023-05-10T06:55:09.513Z,10.4134
2023-05-10T06:56:17.602Z,10.3708
2023-05-10T06:57:31.794Z,10.5385
2023-05-10T06:58:38.692Z,10.6605
2023-05-10T06:59:46.752Z,10.6508
2023-05-10T07:00:54.831Z,10.7864
2023-05-10T07:02:02.899Z,10.7719
2023-05-10T07:03:11.038Z,10.7643
2023-05-10T07:04:19.223Z,10.8683
2023-05-10T07:05:27.053Z,10.7548
2023-05-10T07:06:35.169Z,10.8421
2023-05-10T07:07:43.072Z,10.9617
2023-05-10T07:08:51.091Z,11.1258
2023-05-10T07:09:59.128Z,10.8868
2023-05-10T07:11:07.327Z,10.7819
2023-05-10T07:12:16.046Z,10.9219
2023-05-10T07:13:23.651Z,11.0571
2023-05-10T07:14:31.511Z,10.9289
2023-05-10T07:15:39.580Z,10.9127
2023-05-10T07:16:47.654Z,10.8967
2023-05-10T07:17:55.711Z,10.8856
2023-05-10T07:19:03.792Z,10.8894
2023-05-10T07:20:11.954Z,10.8534
2023-05-10T07:21:20.009Z,10.9140
2023-05-10T07:22:27.809Z,11.2045
2023-05-10T07:23:35.894Z,11.1885
2023-05-10T07:24:43.901Z,11.2452
2023-05-10T07:25:52.104Z,11.3886
2023-05-10T07:27:00.261Z,11.6057
2023-05-10T07:28:08.197Z,11.9415
2023-05-10T07:29:16.411Z,12.0773
2023-05-10T07:30:24.413Z,11.9030
2023-05-10T07:31:32.429Z,11.7825
2023-05-10T07:32:40.596Z,11.5936
2023-05-10T07:33:48.538Z,11.4981
2023-05-10T07:34:56.628Z,11.5097
2023-05-10T07:36:04.626Z,11.5915
2023-05-10T07:37:12.583Z,11.6646
2023-05-10T07:38:20.633Z,11.4479
2023-05-10T07:39:28.690Z,11.2747
2023-05-10T07:40:36.927Z,11.0725
2023-05-10T07:41:45.199Z,11.0605
2023-05-10T07:42:53.038Z,11.0775
2023-05-10T07:44:01.063Z,11.2406
2023-05-10T07:45:09.247Z,11.3302
2023-05-10T07:46:17.510Z,11.3646
2023-05-10T07:47:25.330Z,11.4370
2023-05-10T07:48:33.368Z,11.3939
2023-05-10T07:49:41.367Z,11.5002
2023-05-10T07:50:49.429Z,11.5757
2023-05-10T07:51:57.342Z,11.5662
2023-05-10T07:53:05.476Z,11.6257
2023-05-10T07:54:13.469Z,11.6358
2023-05-10T07:55:21.664Z,11.7146
2023-05-10T07:56:29.778Z,11.6608
2023-05-10T07:57:37.876Z,11.5208
2023-05-10T07:58:45.891Z,11.5406
2023-05-10T07:59:53.938Z,11.4769
2023-05-10T08:01:02.075Z,11.4239
2023-05-10T08:02:10.035Z,11.5563
2023-05-10T08:03:18.208Z,11.6778
2023-05-10T08:04:26.238Z,11.6728
2023-05-10T08:05:35.807Z,11.5292
2023-05-10T08:06:47.140Z,11.3653
2023-05-10T08:07:55.056Z,11.4677
2023-05-10T08:09:03.153Z,11.7602
2023-05-10T08:10:11.283Z,11.8376
2023-05-10T08:11:19.372Z,11.6036
2023-05-10T08:12:27.406Z,11.6728
2023-05-10T08:13:35.561Z,11.5053
2023-05-10T08:14:43.602Z,11.3325
2023-05-10T08:15:51.823Z,11.3174
2023-05-10T08:16:59.807Z,11.2097
2023-05-10T08:18:07.873Z,11.3026
2023-05-10T08:19:15.813Z,11.4550
2023-05-10T08:20:23.819Z,11.9574
2023-05-10T08:21:31.848Z,12.1388
2023-05-10T08:22:39.792Z,11.9318
2023-05-10T08:23:47.900Z,11.8874
2023-05-10T08:24:56.268Z,12.0529
2023-05-10T08:26:04.131Z,12.3636
2023-05-10T08:27:12.222Z,12.6797
2023-05-10T08:28:20.261Z,12.6187
2023-05-10T08:29:30.440Z,12.4075
2023-05-10T08:30:41.449Z,12.3063
2023-05-10T08:31:49.343Z,12.3173
2023-05-10T08:32:57.352Z,12.4228
2023-05-10T08:34:05.385Z,12.4718
2023-05-10T08:35:13.337Z,12.5151
2023-05-10T08:36:21.359Z,12.3381
2023-05-10T08:37:29.400Z,12.3497
2023-05-10T08:38:37.643Z,12.3673
2023-05-10T08:39:45.736Z,12.1685
2023-05-10T08:40:53.738Z,12.2299
2023-05-10T08:42:01.784Z,12.2429
2023-05-10T08:43:09.849Z,12.0087
2023-05-10T08:44:17.881Z,12.1393
2023-05-10T08:45:26.009Z,12.5893
2023-05-10T08:46:34.033Z,12.9090
2023-05-10T08:47:42.069Z,13.2120
2023-05-10T08:48:50.173Z,13.3492
2023-05-10T08:49:58.078Z,13.1907
2023-05-10T08:51:06.095Z,13.2170
2023-05-10T08:52:14.141Z,13.1001
2023-05-10T08:53:22.378Z,12.9126
2023-05-10T08:54:30.417Z,12.9072
2023-05-10T08:55:38.451Z,12.8132
2023-05-10T08:56:49.199Z,12.8672
2023-05-10T08:57:59.475Z,12.6424
2023-05-10T08:59:07.578Z,12.3974
2023-05-10T09:00:15.703Z,12.3575
2023-05-10T09:01:23.710Z,12.3694
2023-05-10T09:02:31.774Z,12.2236
2023-05-10T09:03:39.828Z,12.1140
2023-05-10T09:04:47.902Z,12.0459
2023-05-10T09:05:55.809Z,12.0478
2023-05-10T09:07:03.829Z,11.9526
2023-05-10T09:08:12.150Z,12.0062
2023-05-10T09:09:20.170Z,12.0064
2023-05-10T09:10:28.224Z,12.0022
2023-05-10T09:11:36.194Z,12.1456
2023-05-10T09:12:44.260Z,12.3244
2023-05-10T09:13:52.301Z,12.2488
2023-05-10T09:15:00.584Z,11.9494
2023-05-10T09:16:20.342Z,11.8698
2023-05-10T09:17:21.299Z,11.7767
2023-05-10T09:18:29.322Z,11.6987
2023-05-10T09:19:37.333Z,11.6259
2023-05-10T09:20:45.623Z,11.6165
2023-05-10T09:21:53.593Z,11.6667
2023-05-10T09:23:01.634Z,11.7552
2023-05-10T09:24:09.722Z,11.7390
2023-05-10T09:25:18.121Z,11.9101
2023-05-10T09:26:25.861Z,12.1794
2023-05-10T09:27:33.887Z,11.9871
2023-05-10T09:28:41.931Z,12.0358
2023-05-10T09:29:50.058Z,12.0628
2023-05-10T09:30:58.124Z,12.3686
2023-05-10T09:32:05.956Z,12.3825
2023-05-10T09:33:14.062Z,12.0327
2023-05-10T09:34:22.130Z,12.2015
2023-05-10T09:35:30.342Z,12.1287
2023-05-10T09:36:38.492Z,11.9906
2023-05-10T09:37:46.402Z,12.0119
2023-05-10T09:38:54.493Z,11.8639
2023-05-10T09:40:02.482Z,11.9589
2023-05-10T09:41:10.694Z,11.9513
2023-05-10T09:42:18.633Z,11.9255
2023-05-10T09:43:26.672Z,11.8691
2023-05-10T09:44:34.748Z,11.9419
2023-05-10T09:45:42.799Z,12.0014
2023-05-10T09:46:50.739Z,12.0014
2023-05-10T09:47:58.790Z,11.9501
2023-05-10T09:49:06.787Z,11.8990
2023-05-10T09:50:14.983Z,11.6530
2023-05-10T09:51:23.130Z,11.3779
2023-05-10T09:52:31.086Z,11.6047
2023-05-10T09:53:39.160Z,11.8034
2023-05-10T09:54:47.212Z,11.8063
2023-05-10T09:55:55.316Z,11.9507
2023-05-10T09:57:03.318Z,12.2646
2023-05-10T09:58:11.659Z,12.5263
2023-05-10T09:59:19.423Z,12.5952
2023-05-10T10:00:27.613Z,12.5523
2023-05-10T10:01:35.500Z,12.5820
2023-05-10T10:02:43.513Z,12.5229
2023-05-10T10:03:51.522Z,12.6278
2023-05-10T10:04:59.895Z,12.5546
2023-05-10T10:06:15.901Z,12.6488
2023-05-10T10:07:20.678Z,12.7928
2023-05-10T10:08:28.736Z,12.9212
2023-05-10T10:09:36.770Z,13.1625
2023-05-10T10:10:46.017Z,13.4167
2023-05-10T10:11:53.001Z,13.7087
2023-05-10T10:13:00.963Z,13.9588
2023-05-10T10:14:09.059Z,14.0248
2023-05-10T10:15:17.105Z,13.9138
2023-05-10T10:16:25.021Z,13.8213
2023-05-10T10:17:33.097Z,13.8806
2023-05-10T10:18:41.308Z,13.8632
2023-05-10T10:19:49.310Z,13.7909
2023-05-10T10:20:57.421Z,13.6137
2023-05-10T10:22:05.539Z,13.4837
2023-05-10T10:23:15.170Z,13.2431
2023-05-10T10:24:26.395Z,13.3014
2023-05-10T10:25:34.602Z,13.0221
2023-05-10T10:26:42.515Z,12.8451
2023-05-10T10:27:50.596Z,13.0760
2023-05-10T10:28:58.501Z,13.2630
2023-05-10T10:30:06.546Z,13.2851
2023-05-10T10:31:14.713Z,13.0863
2023-05-10T10:32:22.800Z,13.2943
2023-05-10T10:33:30.996Z,13.4760
2023-05-10T10:34:38.905Z,13.7907
2023-05-10T10:35:46.982Z,13.8306
2023-05-10T10:36:55.006Z,13.8346
2023-05-10T10:38:03.141Z,14.2611
2023-05-10T10:39:11.146Z,14.7771
2023-05-10T10:40:19.275Z,14.8932
2023-05-10T10:41:27.222Z,14.9396
2023-05-10T10:42:35.351Z,15.1053
2023-05-10T10:43:43.244Z,15.1055
2023-05-10T10:44:51.278Z,15.3582
2023-05-10T10:45:59.362Z,15.4452
2023-05-10T10:47:07.728Z,15.3021
2023-05-10T10:48:15.636Z,15.2505
2023-05-10T10:49:23.628Z,15.3731
2023-05-10T10:50:31.809Z,15.4318
2023-05-10T10:51:39.915Z,15.5534
2023-05-10T10:52:48.002Z,14.9529
2023-05-10T10:53:55.851Z,15.1747
2023-05-10T10:55:04.118Z,15.6735
2023-05-10T10:56:12.031Z,15.5081
2023-05-10T10:57:20.077Z,15.2575
2023-05-10T10:58:27.954Z,15.1688
2023-05-10T10:59:36.018Z,15.3096
2023-05-10T11:00:44.114Z,14.8488
2023-05-10T11:01:52.395Z,14.4705
2023-05-10T11:03:00.378Z,14.4108
2023-05-10T11:04:08.379Z,14.1875
2023-05-10T11:05:16.575Z,13.9769
2023-05-10T11:06:24.680Z,13.8632
2023-05-10T11:07:32.605Z,13.7797
2023-05-10T11:08:40.595Z,13.7738
2023-05-10T11:09:48.661Z,13.6353
2023-05-10T11:10:56.910Z,13.5281
2023-05-10T11:12:04.844Z,13.4146
2023-05-10T11:13:12.683Z,13.3889
2023-05-10T11:14:20.733Z,13.2813
2023-05-10T11:15:28.775Z,13.1172
2023-05-10T11:16:37.011Z,13.1077
2023-05-10T11:17:45.259Z,12.9959
2023-05-10T11:18:53.091Z,12.9614
2023-05-10T11:20:01.114Z,12.8411
2023-05-10T11:21:09.341Z,12.9067
2023-05-10T11:22:17.194Z,12.9175
2023-05-10T11:23:25.367Z,12.8588
2023-05-10T11:24:33.452Z,12.7863
2023-05-10T11:25:41.644Z,12.9889
2023-05-10T11:26:49.476Z,13.0106
2023-05-10T11:27:57.448Z,13.1886
2023-05-10T11:29:05.520Z,13.2767
2023-05-10T11:30:13.647Z,13.2000
2023-05-10T11:31:21.829Z,13.2180
2023-05-10T11:32:29.819Z,13.3850
2023-05-10T11:33:37.925Z,13.4657
2023-05-10T11:34:45.849Z,13.7488
2023-05-10T11:35:53.968Z,14.0341
2023-05-10T11:37:01.984Z,14.2100
2023-05-10T11:38:10.075Z,14.2527
2023-05-10T11:39:18.054Z,14.0263
2023-05-10T11:40:26.137Z,13.9946
2023-05-10T11:41:34.394Z,13.9966
2023-05-10T11:42:42.116Z,14.0500
2023-05-10T11:43:50.136Z,13.9786
2023-05-10T11:44:58.248Z,14.0671
2023-05-10T11:46:06.633Z,14.0873
2023-05-10T11:47:15.309Z,13.9239
2023-05-10T11:48:22.589Z,13.7301
2023-05-10T11:49:30.855Z,13.8028
2023-05-10T11:50:38.631Z,13.7066
2023-05-10T11:51:46.678Z,13.6368
2023-05-10T11:52:54.801Z,13.6349
2023-05-10T11:54:02.867Z,13.7164
2023-05-10T11:55:10.859Z,13.4638
2023-05-10T11:56:18.939Z,13.2700
2023-05-10T11:57:27.020Z,13.4098
2023-05-10T11:58:34.905Z,13.1798
2023-05-10T11:59:43.345Z,13.1062
2023-05-10T12:00:51.020Z,13.0003
2023-05-10T12:01:59.177Z,12.9767
2023-05-10T12:03:07.374Z,12.9027
2023-05-10T12:04:15.445Z,13.0202
2023-05-10T12:05:23.366Z,13.3442
2023-05-10T12:06:31.468Z,13.7431
2023-05-10T12:07:39.547Z,14.1621
2023-05-10T12:08:47.520Z,14.9573
2023-05-10T12:09:55.570Z,15.4462
2023-05-10T12:11:03.646Z,15.2789
2023-05-10T12:12:11.706Z,15.1448
2023-05-10T12:13:19.649Z,15.3157
2023-05-10T12:14:27.718Z,14.8707
2023-05-10T12:15:35.755Z,14.7549
2023-05-10T12:16:43.987Z,14.6092
2023-05-10T12:17:52.075Z,14.3210
2023-05-10T12:19:00.077Z,14.1417
2023-05-10T12:20:08.088Z,14.0259
2023-05-10T12:21:16.194Z,14.1938
2023-05-10T12:22:24.224Z,14.3715
2023-05-10T12:23:32.334Z,14.4682
2023-05-10T12:24:40.384Z,14.5287
2023-05-10T12:25:48.417Z,14.5257
2023-05-10T12:26:56.425Z,14.4658
2023-05-10T12:28:04.423Z,14.3710
2023-05-10T12:29:12.428Z,14.3403
2023-05-10T12:30:20.482Z,14.4551
2023-05-10T12:31:28.836Z,14.6693
2023-05-10T12:32:36.750Z,14.8318
2023-05-10T12:33:44.798Z,14.8009
2023-05-10T12:34:52.860Z,15.1967
2023-05-10T12:36:00.894Z,15.4864
2023-05-10T12:37:08.905Z,15.7647
2023-05-10T12:38:17.077Z,15.9819
2023-05-10T12:39:25.046Z,16.1994
2023-05-10T12:40:33.221Z,16.2368
2023-05-10T12:41:43.518Z,16.1029
2023-05-10T12:42:53.999Z,16.1806
2023-05-10T12:44:02.025Z,15.8553
2023-05-10T12:45:10.069Z,14.9151
2023-05-10T12:46:18.315Z,14.4934
2023-05-10T12:47:26.442Z,14.1675
2023-05-10T12:48:34.383Z,14.2201
2023-05-10T12:49:42.475Z,13.9214
2023-05-10T12:50:50.453Z,13.7557
2023-05-10T12:51:58.517Z,13.5394
2023-05-10T12:53:06.630Z,13.5918
2023-05-10T12:54:14.818Z,13.6670
2023-05-10T12:55:22.704Z,13.8253
2023-05-10T12:56:30.854Z,14.0610
2023-05-10T12:57:38.677Z,14.1322
2023-05-10T12:58:46.760Z,14.4827
2023-05-10T12:59:54.804Z,14.6424
2023-05-10T13:01:03.172Z,14.7133
2023-05-10T13:02:11.060Z,14.6103
2023-05-10T13:03:19.285Z,14.6824
2023-05-10T13:04:27.201Z,14.6731
2023-05-10T13:05:35.285Z,14.3794
2023-05-10T13:06:43.348Z,14.0854
2023-05-10T13:07:51.472Z,14.1697
2023-05-10T13:08:59.509Z,14.2540
2023-05-10T13:10:07.586Z,13.8955
2023-05-10T13:11:15.694Z,13.6975
2023-05-10T13:12:23.537Z,13.3290
2023-05-10T13:13:31.606Z,12.7672
2023-05-10T13:14:39.623Z,12.5370
2023-05-10T13:15:47.788Z,12.6480
2023-05-10T13:16:55.973Z,12.7123
2023-05-10T13:18:04.120Z,12.8002
2023-05-10T13:19:12.256Z,12.8252
2023-05-10T13:20:20.014Z,12.6654
2023-05-10T13:21:28.079Z,12.5796
2023-05-10T13:22:40.197Z,12.6957
2023-05-10T13:23:49.098Z,13.0671
2023-05-10T13:24:57.134Z,14.3256
2023-05-10T13:26:05.088Z,15.3363
2023-05-10T13:27:13.108Z,16.1502
2023-05-10T13:28:21.176Z,16.7481
2023-05-10T13:29:29.421Z,16.4817
2023-05-10T13:30:37.418Z,16.7010
2023-05-10T13:31:45.540Z,16.9301
2023-05-10T13:32:53.575Z,16.8431
2023-05-10T13:34:01.716Z,16.6806
2023-05-10T13:35:09.548Z,16.7983
2023-05-10T13:36:17.823Z,16.7815
2023-05-10T13:37:25.808Z,15.7628
2023-05-10T13:38:33.832Z,15.2138
2023-05-10T13:39:42.057Z,14.5993
2023-05-10T13:40:49.808Z,14.5670
2023-05-10T13:41:57.852Z,14.6384
2023-05-10T13:43:05.954Z,14.8732
2023-05-10T13:44:14.263Z,14.7729